createdAt,value
2022-10-08T00:06:42.585Z,13.04
2022-10-08T00:16:43.939Z,13.12
2022-10-08T00:26:45.356Z,13.18
2022-10-08T00:36:47.534Z,13.17
2022-10-08T00:46:48.852Z,13.24
2022-10-08T00:56:50.174Z,13.49
2022-10-08T01:06:51.567Z,13.63
2022-10-08T01:16:54.322Z,13.69
2022-10-08T01:26:55.642Z,13.81
2022-10-08T01:36:56.986Z,13.93
2022-10-08T01:46:59.334Z,13.89
2022-10-08T01:57:01.305Z,14.03
2022-10-08T02:07:02.673Z,14.01
2022-10-08T02:17:04.048Z,14.15
2022-10-08T02:27:05.431Z,14.29
2022-10-08T02:37:06.836Z,14.19
2022-10-08T02:47:08.855Z,14.01
2022-10-08T02:57:10.188Z,14.04
2022-10-08T03:07:13.565Z,14.05
2022-10-08T03:17:14.909Z,13.89
2022-10-08T03:27:16.278Z,13.88
2022-10-08T03:37:17.586Z,13.66
2022-10-08T03:47:18.969Z,13.68
2022-10-08T03:57:20.280Z,13.60
2022-10-08T04:07:21.589Z,13.55
2022-10-08T04:17:22.904Z,13.46
2022-10-08T04:27:24.254Z,13.30
2022-10-08T04:37:25.582Z,13.02
2022-10-08T04:47:26.898Z,12.80
2022-10-08T04:57:28.209Z,12.58
2022-10-08T05:07:29.721Z,12.44
2022-10-08T05:17:31.076Z,12.30
2022-10-08T05:27:32.389Z,12.12
2022-10-08T05:37:33.743Z,11.99
2022-10-08T05:47:35.070Z,11.86
2022-10-08T05:57:36.409Z,11.79
2022-10-08T06:07:37.785Z,11.76
2022-10-08T06:17:39.103Z,11.74
2022-10-08T06:27:40.431Z,11.74
2022-10-08T06:37:41.835Z,11.83
2022-10-08T06:47:43.162Z,11.93
2022-10-08T06:57:44.400Z,12.00
2022-10-08T07:07:45.711Z,12.04
2022-10-08T07:17:47.036Z,12.11
2022-10-08T07:27:48.329Z,12.17
2022-10-08T07:37:49.722Z,12.35
2022-10-08T07:47:51.042Z,12.54
2022-10-08T07:57:52.352Z,13.00
2022-10-08T08:07:53.703Z,13.38
2022-10-08T08:17:55.012Z,13.59
2022-10-08T08:27:56.372Z,13.64
2022-10-08T08:37:57.691Z,13.88
2022-10-08T08:48:00.380Z,14.21
2022-10-08T08:58:01.681Z,14.51
2022-10-08T09:08:05.340Z,14.97
2022-10-08T09:18:06.674Z,14.97
2022-10-08T09:28:08.091Z,15.20
2022-10-08T09:38:09.413Z,15.25
2022-10-08T09:48:10.726Z,15.37
2022-10-08T09:58:12.133Z,15.58
2022-10-08T10:08:13.398Z,15.91
2022-10-08T10:18:14.826Z,16.22
2022-10-08T10:28:16.188Z,16.35
2022-10-08T10:38:17.442Z,17.13
2022-10-08T10:48:18.805Z,17.01
2022-10-08T10:58:20.126Z,17.38
2022-10-08T11:08:21.499Z,17.75
2022-10-08T11:18:22.808Z,17.84
2022-10-08T11:28:24.422Z,17.88
2022-10-08T11:38:25.714Z,17.64
2022-10-08T11:48:27.025Z,17.53
2022-10-08T11:58:28.453Z,17.56
2022-10-08T12:08:29.817Z,17.66
2022-10-08T12:18:31.233Z,18.05
2022-10-08T12:28:32.680Z,18.00
2022-10-08T12:38:34.045Z,18.01
2022-10-08T12:48:35.330Z,17.65
2022-10-08T12:58:37.486Z,17.60
2022-10-08T13:08:38.919Z,17.97
2022-10-08T13:18:41.810Z,17.52
2022-10-08T13:28:59.963Z,17.65
2022-10-08T13:39:02.106Z,17.79
2022-10-08T13:49:03.540Z,17.53
2022-10-08T13:59:05.554Z,17.87
2022-10-08T14:09:06.971Z,17.49
2022-10-08T14:19:12.009Z,17.60
2022-10-08T14:29:13.602Z,17.48
2022-10-08T14:39:14.869Z,17.71
2022-10-08T14:49:16.453Z,17.57
2022-10-08T14:59:18.522Z,17.63
2022-10-08T15:09:19.903Z,17.37
2022-10-08T15:19:23.842Z,17.13
2022-10-08T15:29:25.497Z,16.91
2022-10-08T15:39:26.860Z,16.62
2022-10-08T15:49:28.113Z,16.41
2022-10-08T15:59:29.465Z,16.13
2022-10-08T16:09:30.842Z,16.03
2022-10-08T16:19:32.209Z,15.94
2022-10-08T16:29:33.515Z,15.53
2022-10-08T16:39:34.843Z,14.93
2022-10-08T16:49:36.258Z,14.58
2022-10-08T16:59:37.516Z,14.33
2022-10-08T17:09:38.825Z,14.15
2022-10-08T17:19:40.132Z,13.98
2022-10-08T17:29:41.446Z,13.85
2022-10-08T17:39:42.828Z,13.52
2022-10-08T17:49:44.238Z,13.26
2022-10-08T17:59:45.865Z,13.04
2022-10-08T18:09:47.340Z,12.82
2022-10-08T18:19:49.722Z,12.54
2022-10-08T18:29:51.008Z,12.10
2022-10-08T18:50:02.628Z,11.65
2022-10-08T19:00:04.343Z,11.64
2022-10-08T19:10:05.620Z,11.31
2022-10-08T19:20:07.600Z,11.23
2022-10-08T19:30:10.517Z,11.06
2022-10-08T19:40:11.832Z,10.94
2022-10-08T19:50:13.153Z,10.76
2022-10-08T20:00:15.742Z,10.64
2022-10-08T20:10:17.452Z,10.42
2022-10-08T20:20:32.194Z,10.30
2022-10-08T20:30:34.396Z,10.23
2022-10-08T20:40:35.732Z,10.15
2022-10-08T20:50:37.063Z,9.85
2022-10-08T21:00:38.488Z,9.73
2022-10-08T21:10:39.831Z,9.48
2022-10-08T21:20:41.224Z,9.48
2022-10-08T21:30:42.557Z,9.38
2022-10-08T21:40:43.916Z,9.37
2022-10-08T21:50:45.416Z,9.42
2022-10-08T22:00:46.831Z,9.31
2022-10-08T22:10:48.209Z,9.16
2022-10-08T22:20:49.550Z,9.15
2022-10-08T22:30:50.926Z,9.10
2022-10-08T22:40:52.244Z,9.01
2022-10-08T22:50:53.556Z,8.94
2022-10-08T23:00:54.878Z,8.95
2022-10-08T23:10:56.187Z,8.86
2022-10-08T23:20:57.495Z,8.78
2022-10-08T23:30:58.832Z,8.76
2022-10-08T23:41:00.444Z,8.67
2022-10-08T23:51:01.757Z,8.55
